Observations for ALICANTE EL ALTET, Spain (LEAL)

LEAL 260500Z 01006KT 350V060 9999 FEW018 23/19 Q1015 NOSIG  
LEAL 260430Z 01005KT 9999 FEW020 24/20 Q1015 NOSIG  
LEAL 260400Z 01005KT 9999 FEW020 24/20 Q1015 NOSIG  
LEAL 260330Z 01005KT 9999 FEW018 SCT028 24/20 Q1015 NOSIG   
LEAL 260300Z 01006KT 9999 FEW018 SCT028 24/20 Q1016 NOSIG   
LEAL 260230Z 36005KT 9999 FEW018 SCT028 24/20 Q1016 NOSIG   
LEAL 260200Z 01005KT 9999 FEW018 SCT025 24/20 Q1015 NOSIG   
LEAL 260130Z 01005KT 9999 FEW018 SCT025 24/20 Q1016 NOSIG   
LEAL 260100Z 36004KT 9999 FEW018 SCT025 24/20 Q1016 NOSIG   
LEAL 260030Z 05004KT 010V100 9999 FEW018 25/21 Q1016 NOSIG  
LEAL 260000Z 09007KT 9999 FEW018 24/21 Q1016 NOSIG  
LEAL 252330Z 10006KT 9999 FEW016 24/21 Q1017 NOSIG  
LEAL 252300Z 09006KT 9999 FEW015 SCT020 25/21 Q1017 NOSIG   
LEAL 252230Z 10005KT 9999 FEW015 25/21 Q1017 NOSIG  
LEAL 252200Z 10006KT 9999 FEW015 25/21 Q1017 NOSIG  
LEAL 252130Z 10006KT 9999 FEW015 25/22 Q1017 NOSIG  
LEAL 252100Z 08008KT 9999 FEW016 SCT025 26/22 Q1017 NOSIG   
LEAL 252030Z 06007KT 9999 FEW016 SCT020 25/21 Q1016 NOSIG   
LEAL 252000Z 07008KT 050V110 9999 FEW016 26/21 Q1017 NOSIG  
LEAL 251930Z 08007KT 9999 FEW018 25/21 Q1016 NOSIG  
LEAL 251900Z 08009KT 9999 FEW018 26/21 Q1016 NOSIG  
LEAL 251830Z 09009KT 9999 FEW020 26/21 Q1016 NOSIG  
LEAL 251800Z 09010KT 060V120 9999 FEW020 26/21 Q1016 NOSIG  
LEAL 251730Z 09011KT 050V110 9999 FEW020 27/20 Q1016 NOSIG  
LEAL 251700Z 10010KT 060V140 9999 FEW020 27/20 Q1016 NOSIG  
LEAL 251630Z 08010KT 050V110 9999 FEW017 28/20 Q1016 NOSIG  
LEAL 251600Z 08011KT 050V110 9999 FEW017 27/22 Q1016 NOSIG  
LEAL 251530Z 08010KT 9999 FEW017 27/22 Q1016 NOSIG  
LEAL 251500Z 08009KT 050V120 9999 FEW017 28/22 Q1016 NOSIG  
LEAL 251430Z 09011KT 060V130 9999 FEW017 27/22 Q1016 NOSIG  
LEAL 251400Z 10010KT 070V140 9999 FEW020 28/22 Q1016 NOSIG  
LEAL 251330Z 09010KT 060V130 9999 FEW020 28/21 Q1017 NOSIG  
LEAL 251300Z 09010KT 060V150 9999 FEW020 28/21 Q1017 NOSIG  
LEAL 251230Z 10009KT 060V160 9999 FEW020 28/19 Q1017 NOSIG  
LEAL 251200Z 10007KT 030V150 9999 FEW020 28/20 Q1017 NOSIG  
LEAL 251130Z 10008KT 070V150 9999 FEW020 28/20 Q1017 NOSIG  
LEAL 251100Z 09007KT 040V130 9999 FEW020 28/20 Q1017 NOSIG  
LEAL 251030Z 10008KT 060V140 9999 FEW020 28/20 Q1018 NOSIG  
LEAL 251000Z 09007KT 060V150 9999 FEW020 28/20 Q1018 NOSIG  
LEAL 250930Z 09006KT 060V140 9999 FEW020 28/20 Q1018 NOSIG  
LEAL 250900Z 09006KT 050V140 9999 FEW020 27/20 Q1018 NOSIG  
LEAL 250830Z 10005KT 030V140 9999 FEW018 27/20 Q1018 NOSIG  
LEAL 250800Z VRB02KT 9999 FEW018TCU 27/19 Q1018 NOSIG   
LEAL 250730Z 01004KT 340V070 9999 FEW018 25/18 Q1017 NOSIG  
LEAL 250700Z 31003KT 260V060 9999 FEW018TCU 24/19 Q1017 NOSIG   
LEAL 250630Z 33003KT 290V020 9999 FEW018TCU 23/20 Q1017 NOSIG   
LEAL 250600Z 35004KT 330V070 9999 FEW018TCU 22/20 Q1017 NOSIG   
LEAL 250530Z 32005KT 300V020 9999 FEW015 22/19 Q1017 NOSIG  
LEAL 250500Z 31005KT 9999 FEW018 22/19 Q1017 NOSIG  
LEAL 250430Z 29003KT 9999 FEW018 22/20 Q1017 NOSIG